createdAt,value
2019-06-07T00:01:16.355Z,9.58
2019-06-07T00:03:55.430Z,7.53
2019-06-07T00:06:32.534Z,10.40
2019-06-07T00:09:02.774Z,7.95
2019-06-07T00:14:02.558Z,8.65
2019-06-07T00:16:30.905Z,11.48
2019-06-07T00:19:02.375Z,10.53
2019-06-07T00:22:12.763Z,6.10
2019-06-07T00:24:00.938Z,6.80
2019-06-07T00:26:30.317Z,5.45
2019-06-07T00:28:58.730Z,9.00
2019-06-07T00:31:30.624Z,8.80
2019-06-07T00:33:59.035Z,10.58
2019-06-07T00:36:30.062Z,9.83
2019-06-07T00:39:01.917Z,14.40
2019-06-07T00:41:34.127Z,10.68
2019-06-07T00:44:02.542Z,12.20
2019-06-07T00:46:34.816Z,9.43
2019-06-07T00:49:05.870Z,7.08
2019-06-07T00:51:50.174Z,12.60
2019-06-07T00:54:12.953Z,12.03
2019-06-07T00:56:42.405Z,13.38
2019-06-07T00:59:14.651Z,10.03
2019-06-07T01:01:45.279Z,15.58
2019-06-07T01:04:17.746Z,7.45
2019-06-07T01:06:45.901Z,10.63
2019-06-07T01:09:15.322Z,11.08
2019-06-07T01:11:48.573Z,12.13
2019-06-07T01:14:24.067Z,9.83
2019-06-07T01:16:59.372Z,12.15
2019-06-07T01:19:27.552Z,13.43
2019-06-07T01:21:56.273Z,11.12
2019-06-07T01:24:38.476Z,9.75
2019-06-07T01:27:10.103Z,11.30
2019-06-07T01:29:38.509Z,13.47
2019-06-07T01:32:10.677Z,9.87
2019-06-07T01:34:45.450Z,9.60
2019-06-07T01:37:16.855Z,12.07
2019-06-07T01:39:48.431Z,8.80
2019-06-07T01:42:18.172Z,11.10
2019-06-07T01:44:51.235Z,17.52
2019-06-07T01:47:21.195Z,13.03
2019-06-07T01:49:52.974Z,9.43
2019-06-07T01:52:26.871Z,13.98
2019-06-07T01:54:59.325Z,8.68
2019-06-07T01:57:45.473Z,10.28
2019-06-07T02:00:11.996Z,13.20
2019-06-07T02:02:40.406Z,11.95
2019-06-07T02:05:10.146Z,16.62
2019-06-07T02:07:39.699Z,13.70
2019-06-07T02:10:09.349Z,10.72
2019-06-07T02:12:43.454Z,12.85
2019-06-07T02:15:13.715Z,14.18
2019-06-07T02:17:43.025Z,12.25
2019-06-07T02:20:22.940Z,13.53
2019-06-07T02:22:49.734Z,20.30
2019-06-07T02:25:42.262Z,13.30
2019-06-07T02:28:25.971Z,11.73
2019-06-07T02:30:53.226Z,14.90
2019-06-07T02:32:58.017Z,11.28
2019-06-07T02:35:34.877Z,15.43
2019-06-07T02:37:59.227Z,15.98
2019-06-07T02:40:36.972Z,12.30
2019-06-07T02:43:05.396Z,11.53
2019-06-07T02:45:42.144Z,12.85
2019-06-07T02:48:08.309Z,11.35
2019-06-07T02:50:43.980Z,14.98
2019-06-07T02:53:12.401Z,12.87
2019-06-07T02:56:26.892Z,15.25
2019-06-07T02:58:21.518Z,13.70
2019-06-07T03:01:08.880Z,11.10
2019-06-07T03:03:22.425Z,13.58
2019-06-07T03:05:52.068Z,10.13
2019-06-07T03:08:20.538Z,12.53
2019-06-07T03:10:53.857Z,9.33
2019-06-07T03:13:28.927Z,14.93
2019-06-07T03:16:03.524Z,10.00
2019-06-07T03:18:51.799Z,12.85
2019-06-07T03:21:31.488Z,9.43
2019-06-07T03:24:03.596Z,12.55
2019-06-07T03:26:45.754Z,11.20
2019-06-07T03:29:03.628Z,14.65
2019-06-07T03:31:45.947Z,12.88
2019-06-07T03:34:09.359Z,15.72
2019-06-07T03:36:41.558Z,11.22
2019-06-07T03:39:09.987Z,12.45
2019-06-07T03:42:04.736Z,11.30
2019-06-07T03:44:12.637Z,12.70
2019-06-07T03:46:45.356Z,9.43
2019-06-07T03:49:17.957Z,13.80
2019-06-07T03:51:46.351Z,12.18
2019-06-07T03:54:17.470Z,12.13
2019-06-07T03:56:48.223Z,11.08
2019-06-07T03:59:16.663Z,9.38
2019-06-07T04:01:47.842Z,12.98
2019-06-07T04:04:16.258Z,11.57
2019-06-07T04:06:44.695Z,12.25
2019-06-07T04:09:18.374Z,15.72
2019-06-07T04:11:46.777Z,13.78
2019-06-07T04:14:16.234Z,13.50
2019-06-07T04:16:45.172Z,11.60
2019-06-07T04:19:18.219Z,11.85
2019-06-07T04:21:47.574Z,12.53
2019-06-07T04:24:18.489Z,12.90
2019-06-07T04:26:50.681Z,12.18
2019-06-07T04:31:56.883Z,13.85
2019-06-07T04:34:25.300Z,14.10
2019-06-07T04:36:59.740Z,11.95
2019-06-07T04:39:35.818Z,12.88
2019-06-07T04:42:06.003Z,9.00
2019-06-07T04:44:42.574Z,13.60
2019-06-07T04:47:17.287Z,14.20
2019-06-07T04:49:48.536Z,14.38
2019-06-07T04:52:19.517Z,16.40
2019-06-07T04:54:51.041Z,11.25
2019-06-07T04:57:19.449Z,12.00
2019-06-07T05:00:11.736Z,14.53
2019-06-07T05:02:23.323Z,11.10
2019-06-07T05:04:52.899Z,10.80
2019-06-07T05:07:22.341Z,16.07
2019-06-07T05:09:53.176Z,13.08
2019-06-07T05:12:21.580Z,8.17
2019-06-07T05:14:49.997Z,5.50
2019-06-07T05:17:20.976Z,7.00
2019-06-07T05:19:54.020Z,6.08
2019-06-07T05:22:31.664Z,6.70
2019-06-07T05:25:01.634Z,9.03
2019-06-07T05:27:38.588Z,7.35
2019-06-07T05:30:56.954Z,8.00
2019-06-07T05:32:50.966Z,5.40
2019-06-07T05:35:19.521Z,7.12
2019-06-07T05:37:47.888Z,5.00
2019-06-07T05:40:24.608Z,7.72
2019-06-07T05:42:58.386Z,5.15
2019-06-07T05:45:39.131Z,4.28
2019-06-07T05:48:12.243Z,4.70
2019-06-07T05:50:55.430Z,8.43
2019-06-07T05:53:14.874Z,6.62
2019-06-07T05:55:51.304Z,6.53
2019-06-07T05:58:22.854Z,3.97
2019-06-07T06:00:54.281Z,6.25
2019-06-07T06:03:29.138Z,4.93
2019-06-07T06:06:01.956Z,4.42
2019-06-07T06:08:36.671Z,3.25
2019-06-07T06:11:10.922Z,5.95
2019-06-07T06:14:04.669Z,3.47
2019-06-07T06:16:14.276Z,2.35
2019-06-07T06:18:51.101Z,3.47
2019-06-07T06:21:45.233Z,2.65
2019-06-07T06:24:17.307Z,1.67
2019-06-07T06:26:57.042Z,4.97
2019-06-07T06:29:26.014Z,2.77
2019-06-07T06:32:40.541Z,4.97
2019-06-07T06:34:46.959Z,2.17
2019-06-07T06:37:24.793Z,5.30
2019-06-07T06:39:52.021Z,3.15
2019-06-07T06:42:21.513Z,3.02
2019-06-07T06:44:56.364Z,3.52
2019-06-07T06:47:32.633Z,3.08
2019-06-07T06:50:05.383Z,4.35
2019-06-07T06:52:46.231Z,2.87
2019-06-07T06:55:15.450Z,3.47
2019-06-07T06:57:43.844Z,2.92
2019-06-07T07:00:21.544Z,2.30
2019-06-07T07:03:40.690Z,2.72
2019-06-07T07:05:31.918Z,2.35
2019-06-07T07:08:00.499Z,4.15
2019-06-07T07:10:43.311Z,2.50
2019-06-07T07:13:12.430Z,3.05
2019-06-07T07:15:42.813Z,3.02
2019-06-07T07:18:13.773Z,2.52
2019-06-07T07:20:43.522Z,3.05
2019-06-07T07:23:12.299Z,2.12
2019-06-07T07:25:46.041Z,2.50
2019-06-07T07:28:14.257Z,5.25
2019-06-07T07:30:55.380Z,2.62
2019-06-07T07:34:20.594Z,2.87
2019-06-07T07:36:23.272Z,2.95
2019-06-07T07:38:48.977Z,2.40
2019-06-07T07:41:15.627Z,2.02
2019-06-07T07:43:45.702Z,3.67
2019-06-07T07:46:29.006Z,2.77
2019-06-07T07:48:54.705Z,2.30
2019-06-07T07:51:27.807Z,3.10
2019-06-07T07:54:10.223Z,5.10
2019-06-07T07:56:27.460Z,3.33
2019-06-07T07:59:01.469Z,4.60
2019-06-07T08:01:28.679Z,3.83
2019-06-07T08:04:04.720Z,2.50
2019-06-07T08:06:35.574Z,4.78
2019-06-07T08:09:05.652Z,2.95
2019-06-07T08:11:35.117Z,2.77
2019-06-07T08:14:08.104Z,2.33
2019-06-07T08:16:37.513Z,2.85
2019-06-07T08:19:18.259Z,1.05
2019-06-07T08:21:50.608Z,2.25
2019-06-07T08:24:19.994Z,3.22
2019-06-07T08:27:12.306Z,4.12
2019-06-07T08:29:22.350Z,2.62
2019-06-07T08:31:58.710Z,3.02
2019-06-07T08:34:29.903Z,5.78
2019-06-07T08:37:00.119Z,3.83
2019-06-07T08:39:27.500Z,2.85
2019-06-07T08:42:14.118Z,3.72
2019-06-07T08:44:28.286Z,1.95
2019-06-07T08:47:16.675Z,3.83
2019-06-07T08:49:26.847Z,4.12
2019-06-07T08:52:09.729Z,2.55
2019-06-07T08:54:29.483Z,2.90
2019-06-07T08:57:17.986Z,4.58
2019-06-07T08:59:28.043Z,2.98
2019-06-07T09:02:04.223Z,3.35
2019-06-07T09:04:36.963Z,5.15
2019-06-07T09:07:19.464Z,2.75
2019-06-07T09:09:47.521Z,2.92
2019-06-07T09:12:16.023Z,5.97
2019-06-07T09:14:59.582Z,2.35
2019-06-07T09:17:18.385Z,2.90
2019-06-07T09:22:17.864Z,3.00
2019-06-07T09:24:46.307Z,5.70
2019-06-07T09:27:15.335Z,3.65
2019-06-07T09:29:44.589Z,3.85
2019-06-07T09:32:18.694Z,3.23
2019-06-07T09:34:47.256Z,1.77
2019-06-07T09:39:54.386Z,2.15
2019-06-07T09:42:26.935Z,2.40
2019-06-07T09:44:57.021Z,2.20
2019-06-07T09:47:32.824Z,2.90
2019-06-07T09:50:08.303Z,2.33
2019-06-07T09:52:29.750Z,7.00
2019-06-07T09:55:09.362Z,10.43
2019-06-07T09:57:34.047Z,6.57
2019-06-07T10:00:38.183Z,3.60
2019-06-07T10:02:35.770Z,5.27
2019-06-07T10:05:12.178Z,3.20
2019-06-07T10:07:59.181Z,2.25
2019-06-07T10:12:45.929Z,3.75
2019-06-07T10:15:14.489Z,5.55
2019-06-07T10:17:42.920Z,2.75
2019-06-07T10:20:13.076Z,3.08
2019-06-07T10:22:43.890Z,1.35
2019-06-07T10:25:12.467Z,2.22
2019-06-07T10:27:43.391Z,3.67
2019-06-07T10:30:13.195Z,4.85
2019-06-07T10:32:52.078Z,3.87
2019-06-07T10:35:18.741Z,3.47
2019-06-07T10:37:53.289Z,3.17
2019-06-07T10:40:25.424Z,2.62
2019-06-07T10:42:58.689Z,3.17
2019-06-07T10:45:27.080Z,2.75
2019-06-07T10:47:55.497Z,4.20
2019-06-07T10:50:23.986Z,3.75
2019-06-07T10:53:10.713Z,4.15
2019-06-07T10:55:40.293Z,1.42
2019-06-07T10:58:09.199Z,3.37
2019-06-07T11:00:37.693Z,2.00
2019-06-07T11:03:11.839Z,2.55
2019-06-07T11:05:41.381Z,4.53
2019-06-07T11:08:10.242Z,1.65
2019-06-07T11:10:38.786Z,3.45
2019-06-07T11:13:08.245Z,1.50
2019-06-07T11:15:36.860Z,4.92
2019-06-07T11:18:06.377Z,2.52
2019-06-07T11:20:35.594Z,3.67
2019-06-07T11:23:10.121Z,4.58
2019-06-07T11:25:42.037Z,3.98
2019-06-07T11:28:18.711Z,3.00
2019-06-07T11:30:52.200Z,2.33
2019-06-07T11:33:24.993Z,2.70
2019-06-07T11:35:54.321Z,3.00
2019-06-07T11:38:26.613Z,6.23
2019-06-07T11:43:33.572Z,2.98
2019-06-07T11:46:01.986Z,3.02
2019-06-07T11:48:30.466Z,3.80
2019-06-07T11:51:08.636Z,3.60
2019-06-07T11:53:56.197Z,2.58
2019-06-07T11:58:54.951Z,3.33
2019-06-07T12:01:23.380Z,3.40
2019-06-07T12:03:58.778Z,3.20
2019-06-07T12:06:21.961Z,3.30
2019-06-07T12:08:50.406Z,2.08
2019-06-07T12:11:23.071Z,4.05
2019-06-07T12:13:55.257Z,3.15
2019-06-07T12:21:23.964Z,5.42
2019-06-07T12:23:52.558Z,2.77
2019-06-07T12:26:38.323Z,1.77
2019-06-07T12:29:06.750Z,2.87
2019-06-07T12:31:43.747Z,2.02
2019-06-07T12:34:25.254Z,2.17
2019-06-07T12:36:59.107Z,5.35
2019-06-07T12:39:34.335Z,3.45
2019-06-07T12:42:02.773Z,2.20
2019-06-07T12:44:34.696Z,2.50
2019-06-07T12:47:09.456Z,1.97
2019-06-07T12:49:37.870Z,3.87
2019-06-07T12:52:07.918Z,2.83
2019-06-07T12:54:40.432Z,4.55
2019-06-07T12:57:08.835Z,3.60
2019-06-07T12:59:41.042Z,2.10
2019-06-07T13:04:38.033Z,3.35
2019-06-07T13:07:06.678Z,2.72
2019-06-07T13:09:51.809Z,1.77
2019-06-07T13:12:24.489Z,3.00
2019-06-07T13:14:52.927Z,1.87
2019-06-07T13:17:22.277Z,3.15
2019-06-07T13:19:53.413Z,3.08
2019-06-07T13:22:22.306Z,7.43
2019-06-07T13:24:50.875Z,2.25
2019-06-07T13:27:20.439Z,1.87
2019-06-07T13:29:51.951Z,1.17
2019-06-07T13:32:28.162Z,2.62
2019-06-07T13:35:20.475Z,3.47
2019-06-07T13:37:59.817Z,3.95
2019-06-07T13:40:33.856Z,1.20
2019-06-07T13:43:17.260Z,1.92
2019-06-07T13:45:49.460Z,3.58
2019-06-07T13:48:32.493Z,3.90
2019-06-07T13:51:12.711Z,3.15
2019-06-07T13:53:53.560Z,1.80
2019-06-07T13:56:37.098Z,4.22
2019-06-07T13:59:09.528Z,3.15
2019-06-07T14:01:47.374Z,2.27
2019-06-07T14:04:24.890Z,1.75
2019-06-07T14:07:08.974Z,3.27
2019-06-07T14:09:29.870Z,3.83
2019-06-07T14:12:06.541Z,3.33
2019-06-07T14:14:39.633Z,4.87
2019-06-07T14:20:09.832Z,4.25
2019-06-07T14:22:48.916Z,3.80
2019-06-07T14:25:25.131Z,4.08
2019-06-07T14:27:57.087Z,3.35
2019-06-07T14:30:33.389Z,2.87
2019-06-07T14:33:09.483Z,1.45
2019-06-07T14:35:51.618Z,6.05
2019-06-07T14:38:24.900Z,3.53
2019-06-07T14:40:55.769Z,2.47
2019-06-07T14:43:25.113Z,6.17
2019-06-07T14:45:56.776Z,3.17
2019-06-07T14:48:36.788Z,3.03
2019-06-07T14:51:05.448Z,2.02
2019-06-07T14:53:36.402Z,5.92
2019-06-07T14:56:14.174Z,3.15
2019-06-07T15:02:50.174Z,2.42
2019-06-07T15:10:35.232Z,2.27
2019-06-07T15:19:16.341Z,2.70
2019-06-07T15:23:39.358Z,1.60
2019-06-07T15:25:31.179Z,2.45
2019-06-07T15:28:24.345Z,3.05
2019-06-07T15:30:52.775Z,3.77
2019-06-07T15:33:24.276Z,2.98
2019-06-07T15:36:19.829Z,1.77
2019-06-07T15:38:47.931Z,2.23
2019-06-07T15:41:16.324Z,3.40
2019-06-07T15:43:44.724Z,3.62
2019-06-07T15:46:42.442Z,2.30
2019-06-07T15:49:12.028Z,2.00
2019-06-07T15:51:40.976Z,2.37
2019-06-07T15:54:09.707Z,3.83
2019-06-07T15:56:39.176Z,3.42
2019-06-07T15:59:08.670Z,3.02
2019-06-07T16:01:37.674Z,3.77
2019-06-07T16:04:06.185Z,3.42
2019-06-07T16:06:43.369Z,1.20
2019-06-07T16:09:08.544Z,3.60
2019-06-07T16:11:37.294Z,3.20
2019-06-07T16:14:09.868Z,2.85
2019-06-07T16:16:43.411Z,5.28
2019-06-07T16:19:11.916Z,4.78
2019-06-07T16:21:41.482Z,7.05
2019-06-07T16:24:11.986Z,2.90
2019-06-07T16:27:01.615Z,3.60
2019-06-07T16:29:34.572Z,6.35
2019-06-07T16:32:06.567Z,2.10
2019-06-07T16:34:35.092Z,4.05
2019-06-07T16:37:03.642Z,3.10
2019-06-07T16:39:33.061Z,2.77
2019-06-07T16:42:04.654Z,1.77
2019-06-07T16:44:33.129Z,1.90
2019-06-07T16:47:04.384Z,4.28
2019-06-07T16:49:32.935Z,3.45
2019-06-07T16:52:04.233Z,9.53
2019-06-07T16:54:35.640Z,3.25
2019-06-07T16:57:19.945Z,3.10
2019-06-07T16:59:51.187Z,4.47
2019-06-07T17:02:21.804Z,6.72
2019-06-07T17:04:51.301Z,5.90
2019-06-07T17:07:24.679Z,4.72
2019-06-07T17:09:56.869Z,7.40
2019-06-07T17:12:28.172Z,3.47
2019-06-07T17:15:07.735Z,3.17
2019-06-07T17:17:41.019Z,12.37
2019-06-07T17:20:24.601Z,6.25
2019-06-07T17:22:49.784Z,6.85
2019-06-07T17:25:21.382Z,5.00
2019-06-07T17:27:59.126Z,8.57
2019-06-07T17:30:27.606Z,5.17
2019-06-07T17:32:59.440Z,6.47
2019-06-07T17:35:32.107Z,6.80
2019-06-07T17:38:04.955Z,3.95
2019-06-07T17:40:33.685Z,5.53
2019-06-07T17:43:02.225Z,7.78
2019-06-07T17:45:35.558Z,4.78
2019-06-07T17:48:02.778Z,4.28
2019-06-07T17:50:31.474Z,6.30
2019-06-07T17:53:02.837Z,6.45
2019-06-07T17:55:31.612Z,4.10
2019-06-07T17:58:02.742Z,5.80
2019-06-07T18:00:53.095Z,8.05
2019-06-07T18:03:28.643Z,3.98
2019-06-07T18:06:00.799Z,4.42
2019-06-07T18:08:30.429Z,5.15
2019-06-07T18:11:03.565Z,5.67
2019-06-07T18:13:32.125Z,5.73
2019-06-07T18:16:00.550Z,3.90
2019-06-07T18:18:28.950Z,3.00
2019-06-07T18:21:00.022Z,3.87
2019-06-07T18:23:34.519Z,5.10
2019-06-07T18:26:03.939Z,5.55
2019-06-07T18:28:32.358Z,5.12
2019-06-07T18:31:03.538Z,3.62
2019-06-07T18:33:38.283Z,5.90
2019-06-07T18:36:06.691Z,3.45
2019-06-07T18:38:35.111Z,5.87
2019-06-07T18:41:03.523Z,7.00
2019-06-07T18:43:31.928Z,9.03
2019-06-07T18:46:00.410Z,6.58
2019-06-07T18:48:33.071Z,6.50
2019-06-07T18:51:07.502Z,5.85
2019-06-07T18:53:39.431Z,5.63
2019-06-07T18:56:18.906Z,5.65
2019-06-07T18:58:55.311Z,5.53
2019-06-07T19:01:30.064Z,8.78
2019-06-07T19:04:02.956Z,5.08
2019-06-07T19:06:32.348Z,6.75
2019-06-07T19:09:01.662Z,8.00
2019-06-07T19:11:37.817Z,7.83
2019-06-07T19:14:11.024Z,8.55
2019-06-07T19:16:40.905Z,8.00
2019-06-07T19:19:14.811Z,5.87
2019-06-07T19:21:43.430Z,6.87
2019-06-07T19:24:14.746Z,9.40
2019-06-07T19:26:47.885Z,7.22
2019-06-07T19:29:24.420Z,7.25
2019-06-07T19:31:52.993Z,7.53
2019-06-07T19:34:31.248Z,8.08
2019-06-07T19:37:02.193Z,6.85
2019-06-07T19:39:37.108Z,8.43
2019-06-07T19:42:09.931Z,8.27
2019-06-07T19:44:52.069Z,9.78
2019-06-07T19:47:12.571Z,12.73
2019-06-07T19:49:46.522Z,10.90
2019-06-07T19:52:23.959Z,10.17
2019-06-07T19:54:53.733Z,12.93
2019-06-07T19:57:22.299Z,14.23
2019-06-07T19:59:50.711Z,17.10
2019-06-07T20:02:19.136Z,10.68
2019-06-07T20:04:48.473Z,12.58
2019-06-07T20:07:17.001Z,8.93
2019-06-07T20:09:46.520Z,10.43
2019-06-07T20:12:20.903Z,9.93
2019-06-07T20:14:49.319Z,14.50
2019-06-07T20:17:19.812Z,12.85
2019-06-07T20:19:49.345Z,13.32
2019-06-07T20:22:19.117Z,13.53
2019-06-07T20:25:07.242Z,14.73
2019-06-07T20:27:37.794Z,18.67
2019-06-07T20:30:08.581Z,14.40
2019-06-07T20:32:37.087Z,15.10
2019-06-07T20:35:06.334Z,19.20
2019-06-07T20:37:34.742Z,15.15
2019-06-07T20:40:22.950Z,12.47
2019-06-07T20:42:41.383Z,13.83
2019-06-07T20:45:14.906Z,14.75
2019-06-07T20:47:45.816Z,12.93
2019-06-07T20:50:20.093Z,12.63
2019-06-07T20:52:48.514Z,18.35
2019-06-07T20:55:17.256Z,14.90
2019-06-07T20:57:45.714Z,14.75
2019-06-07T21:00:21.971Z,11.30
2019-06-07T21:02:49.824Z,14.90
2019-06-07T21:05:18.233Z,12.70
2019-06-07T21:07:49.097Z,13.65
2019-06-07T21:10:18.676Z,14.68
2019-06-07T21:12:49.975Z,14.63
2019-06-07T21:15:26.391Z,12.10
2019-06-07T21:17:57.372Z,14.28
2019-06-07T21:20:33.873Z,15.13
2019-06-07T21:23:02.795Z,12.53
2019-06-07T21:25:31.208Z,14.28
2019-06-07T21:28:00.915Z,15.43
2019-06-07T21:30:34.151Z,20.62
2019-06-07T21:33:03.591Z,17.65
2019-06-07T21:35:33.771Z,23.27
2019-06-07T21:38:09.842Z,22.25
2019-06-07T21:40:39.440Z,22.35
2019-06-07T21:43:08.735Z,18.20
2019-06-07T21:45:41.340Z,20.08
2019-06-07T21:48:11.605Z,21.65
2019-06-07T21:50:44.696Z,23.25
2019-06-07T21:53:13.095Z,22.20
2019-06-07T21:55:43.462Z,24.00
2019-06-07T21:58:14.582Z,26.87
2019-06-07T22:01:04.028Z,24.72
2019-06-07T22:03:35.127Z,28.45
2019-06-07T22:06:03.553Z,33.65
2019-06-07T22:08:34.513Z,27.22
2019-06-07T22:11:04.036Z,29.98
2019-06-07T22:13:37.475Z,28.75
2019-06-07T22:16:27.957Z,28.45
2019-06-07T22:18:48.390Z,31.55
2019-06-07T22:21:16.800Z,32.45
2019-06-07T22:23:48.703Z,34.30
2019-06-07T22:26:18.126Z,37.45
2019-06-07T22:28:46.540Z,32.48
2019-06-07T22:31:15.091Z,30.65
2019-06-07T22:33:43.464Z,31.02
2019-06-07T22:36:13.184Z,29.45
2019-06-07T22:38:43.559Z,31.30
2019-06-07T22:41:15.882Z,23.42
2019-06-07T22:43:46.588Z,27.70
2019-06-07T22:46:15.127Z,27.75
2019-06-07T22:48:43.600Z,26.23
2019-06-07T22:51:13.322Z,23.60
2019-06-07T22:53:46.058Z,19.73
2019-06-07T22:56:16.134Z,23.77
2019-06-07T22:58:44.522Z,17.90
2019-06-07T23:01:12.930Z,19.50
2019-06-07T23:03:46.225Z,19.00
2019-06-07T23:06:14.781Z,20.05
2019-06-07T23:08:43.236Z,20.25
2019-06-07T23:11:13.223Z,18.82
2019-06-07T23:13:41.782Z,20.92
2019-06-07T23:16:17.722Z,17.87
2019-06-07T23:18:44.464Z,17.12
2019-06-07T23:21:13.798Z,20.30
2019-06-07T23:23:42.301Z,17.50
2019-06-07T23:26:12.094Z,20.62
2019-06-07T23:28:47.026Z,17.95
2019-06-07T23:31:18.565Z,18.20
2019-06-07T23:33:47.071Z,22.07
2019-06-07T23:36:15.493Z,18.92
2019-06-07T23:38:44.914Z,18.98
2019-06-07T23:41:13.335Z,20.70
2019-06-07T23:43:41.744Z,22.07
2019-06-07T23:46:11.426Z,18.95
2019-06-07T23:48:41.928Z,20.97
2019-06-07T23:51:11.434Z,21.70
2019-06-07T23:53:39.947Z,19.85
2019-06-07T23:56:08.373Z,21.80
2019-06-07T23:58:36.770Z,19.40
